createdAt,value
2018-08-19T00:01:55.909Z,56.92
2018-08-19T00:08:00.566Z,57.22
2018-08-19T00:14:08.572Z,58.26
2018-08-19T00:20:14.845Z,57.41
2018-08-19T00:26:20.042Z,58.85
2018-08-19T00:32:24.780Z,58.47
2018-08-19T00:38:29.916Z,58.56
2018-08-19T00:44:34.891Z,59.34
2018-08-19T00:50:42.271Z,59.40
2018-08-19T00:56:49.170Z,59.63
2018-08-19T01:02:53.937Z,60.39
2018-08-19T01:08:58.683Z,61.47
2018-08-19T01:15:03.447Z,61.62
2018-08-19T01:21:12.397Z,61.92
2018-08-19T01:27:17.623Z,62.62
2018-08-19T01:33:22.346Z,63.25
2018-08-19T01:39:27.041Z,63.04
2018-08-19T01:45:31.781Z,62.91
2018-08-19T01:51:40.539Z,63.42
2018-08-19T01:57:50.185Z,63.42
2018-08-19T02:03:55.098Z,63.54
2018-08-19T02:10:03.300Z,63.76
2018-08-19T02:16:12.278Z,63.94
2018-08-19T02:22:16.986Z,64.62
2018-08-19T02:28:22.407Z,64.68
2018-08-19T02:34:30.945Z,64.68
2018-08-19T02:40:35.664Z,65.03
2018-08-19T02:46:41.724Z,64.72
2018-08-19T02:52:46.386Z,65.06
2018-08-19T02:58:51.282Z,65.09
2018-08-19T03:04:57.072Z,65.67
2018-08-19T03:11:01.729Z,65.38
2018-08-19T03:17:06.536Z,66.22
2018-08-19T03:23:12.389Z,66.58
2018-08-19T03:29:20.941Z,66.57
2018-08-19T03:35:26.836Z,66.87
2018-08-19T03:41:31.623Z,67.40
2018-08-19T03:47:36.299Z,68.43
2018-08-19T03:53:41.308Z,68.08
2018-08-19T03:59:46.017Z,68.26
2018-08-19T04:05:57.264Z,68.40
2018-08-19T04:12:12.814Z,68.24
2018-08-19T04:18:17.526Z,68.63
2018-08-19T04:24:22.459Z,68.13
2018-08-19T04:30:27.229Z,69.22
2018-08-19T04:36:31.905Z,69.08
2018-08-19T04:42:36.726Z,69.13
2018-08-19T04:48:43.748Z,68.98
2018-08-19T04:54:48.407Z,68.84
2018-08-19T05:00:53.078Z,69.12
2018-08-19T05:06:57.865Z,68.12
2018-08-19T05:13:02.521Z,68.65
2018-08-19T05:19:07.555Z,68.85
2018-08-19T05:25:12.580Z,68.64
2018-08-19T05:31:17.231Z,69.11
2018-08-19T05:37:22.053Z,69.09
2018-08-19T05:43:27.026Z,68.76
2018-08-19T05:49:31.785Z,67.94
2018-08-19T05:55:37.116Z,66.96
2018-08-19T06:01:43.006Z,67.63
2018-08-19T06:07:56.346Z,66.47
2018-08-19T06:14:01.075Z,66.01
2018-08-19T06:20:06.501Z,63.63
2018-08-19T06:26:12.332Z,65.20
2018-08-19T06:32:27.703Z,63.34
2018-08-19T06:38:32.665Z,61.02
2018-08-19T06:44:37.859Z,59.87
2018-08-19T06:50:43.125Z,58.88
2018-08-19T06:56:47.870Z,55.07
2018-08-19T07:02:52.783Z,51.53
2018-08-19T07:08:57.568Z,50.55
2018-08-19T07:15:02.537Z,50.84
2018-08-19T07:21:07.552Z,51.70
2018-08-19T07:27:12.613Z,50.91
2018-08-19T07:33:17.296Z,50.66
2018-08-19T07:39:21.970Z,49.76
2018-08-19T07:45:26.942Z,48.69
2018-08-19T07:51:31.818Z,48.18
2018-08-19T07:57:36.825Z,47.61
2018-08-19T08:03:41.709Z,47.23
2018-08-19T08:09:46.581Z,46.38
2018-08-19T08:15:55.927Z,46.37
2018-08-19T08:22:08.949Z,46.20
2018-08-19T08:28:14.190Z,43.89
2018-08-19T08:34:18.972Z,42.92
2018-08-19T08:40:23.755Z,41.18
2018-08-19T08:46:28.498Z,38.77
2018-08-19T08:52:33.166Z,39.76
2018-08-19T08:58:38.286Z,39.96
2018-08-19T09:04:43.922Z,38.43
2018-08-19T09:10:49.371Z,38.08
2018-08-19T09:16:54.204Z,38.06
2018-08-19T09:22:59.174Z,35.82
2018-08-19T09:29:03.844Z,35.45
2018-08-19T09:35:08.696Z,33.86
2018-08-19T09:41:13.619Z,33.76
2018-08-19T09:47:18.402Z,34.85
2018-08-19T09:53:23.630Z,34.37
2018-08-19T09:59:28.668Z,33.63
2018-08-19T10:05:36.121Z,33.31
2018-08-19T10:11:42.393Z,30.73
2018-08-19T10:17:47.634Z,29.89
2018-08-19T10:23:52.335Z,28.88
2018-08-19T10:29:57.275Z,27.79
2018-08-19T10:36:01.985Z,25.70
2018-08-19T10:42:23.886Z,23.48
2018-08-19T10:48:28.622Z,22.85
2018-08-19T10:54:33.332Z,22.28
2018-08-19T11:00:38.419Z,23.71
2018-08-19T11:06:43.723Z,24.45
2018-08-19T11:12:52.716Z,25.44
2018-08-19T11:18:57.491Z,25.19
2018-08-19T11:25:02.414Z,24.46
2018-08-19T11:31:09.373Z,22.13
2018-08-19T11:37:14.251Z,23.23
2018-08-19T11:43:19.024Z,23.87
2018-08-19T11:49:23.839Z,22.76
2018-08-19T11:55:28.516Z,24.34
2018-08-19T12:01:33.350Z,22.20
2018-08-19T12:07:38.509Z,21.97
2018-08-19T12:13:44.452Z,21.24
2018-08-19T12:19:49.567Z,19.59
2018-08-19T12:25:54.288Z,20.11
2018-08-19T12:32:28.957Z,17.93
2018-08-19T12:38:33.731Z,19.36
2018-08-19T12:44:38.792Z,18.40
2018-08-19T12:50:51.954Z,17.82
2018-08-19T12:56:56.930Z,17.96
2018-08-19T13:03:01.782Z,15.54
2018-08-19T13:09:07.706Z,16.10
2018-08-19T13:15:12.485Z,14.71
2018-08-19T13:21:18.542Z,14.22
2018-08-19T13:27:23.513Z,15.11
2018-08-19T13:33:28.336Z,16.76
2018-08-19T13:39:33.161Z,15.40
2018-08-19T13:45:38.106Z,15.87
2018-08-19T13:51:43.433Z,16.88
2018-08-19T13:57:48.333Z,17.44
2018-08-19T14:03:53.475Z,18.44
2018-08-19T14:09:58.179Z,15.60
2018-08-19T14:16:02.887Z,16.01
2018-08-19T14:22:07.679Z,16.47
2018-08-19T14:28:13.139Z,16.76
2018-08-19T14:34:17.830Z,17.18
2018-08-19T14:40:22.764Z,18.68
2018-08-19T14:46:28.807Z,18.63
2018-08-19T14:52:33.516Z,18.43
2018-08-19T14:58:38.781Z,19.62
2018-08-19T15:04:45.761Z,19.68
2018-08-19T15:10:54.567Z,18.95
2018-08-19T15:16:59.437Z,16.68
2018-08-19T15:23:22.579Z,16.26
2018-08-19T15:29:29.300Z,16.29
2018-08-19T15:35:34.031Z,17.20
2018-08-19T15:41:39.202Z,18.90
2018-08-19T15:47:44.003Z,18.33
2018-08-19T15:53:48.815Z,18.32
2018-08-19T15:59:53.512Z,16.79
2018-08-19T16:05:58.391Z,16.08
2018-08-19T16:12:03.149Z,17.11
2018-08-19T16:18:08.911Z,15.67
2018-08-19T16:24:14.456Z,14.31
2018-08-19T16:30:19.735Z,15.17
2018-08-19T16:36:24.726Z,14.56
2018-08-19T16:42:29.565Z,16.92
2018-08-19T16:48:34.595Z,17.90
2018-08-19T16:54:39.743Z,18.77
2018-08-19T17:00:45.446Z,20.19
2018-08-19T17:06:50.221Z,20.36
2018-08-19T17:12:55.208Z,21.64
2018-08-19T17:18:59.841Z,23.83
2018-08-19T17:25:05.414Z,24.38
2018-08-19T17:31:10.546Z,24.98
2018-08-19T17:37:15.505Z,25.71
2018-08-19T17:43:28.059Z,30.20
2018-08-19T17:49:32.856Z,32.66
2018-08-19T17:55:37.620Z,33.06
2018-08-19T18:01:44.033Z,34.09
2018-08-19T18:07:52.819Z,35.74
2018-08-19T18:13:57.618Z,36.46
2018-08-19T18:20:42.254Z,37.18
2018-08-19T18:26:46.992Z,38.18
2018-08-19T18:32:52.145Z,39.34
2018-08-19T18:38:57.303Z,40.67
2018-08-19T18:45:06.136Z,41.35
2018-08-19T18:51:11.378Z,41.83
2018-08-19T18:57:16.459Z,42.17
2018-08-19T19:03:21.237Z,43.34
2018-08-19T19:09:30.355Z,44.00
2018-08-19T19:15:39.565Z,44.37
2018-08-19T19:21:47.725Z,44.53
2018-08-19T19:27:52.394Z,46.12
2018-08-19T19:34:02.738Z,45.72
2018-08-19T19:40:10.088Z,45.78
2018-08-19T19:46:14.831Z,46.58
2018-08-19T19:52:19.477Z,46.74
2018-08-19T19:58:24.456Z,47.48
2018-08-19T20:04:29.101Z,48.15
2018-08-19T20:10:33.888Z,48.00
2018-08-19T20:16:38.856Z,49.13
2018-08-19T20:22:43.782Z,49.47
2018-08-19T20:28:51.459Z,50.15
2018-08-19T20:34:56.284Z,50.88
2018-08-19T20:41:01.049Z,50.64
2018-08-19T20:47:07.967Z,51.65
2018-08-19T20:53:13.000Z,51.76
2018-08-19T20:59:38.194Z,52.34
2018-08-19T21:05:43.177Z,52.26
2018-08-19T21:11:47.995Z,52.37
2018-08-19T21:17:52.669Z,51.91
2018-08-19T21:23:57.382Z,53.19
2018-08-19T21:30:02.057Z,52.85
2018-08-19T21:36:06.899Z,52.67
2018-08-19T21:42:12.065Z,53.35
2018-08-19T21:48:17.487Z,53.41
2018-08-19T21:54:22.209Z,52.59
2018-08-19T22:00:28.952Z,53.22
2018-08-19T22:06:33.623Z,52.42
2018-08-19T22:12:43.019Z,53.65
2018-08-19T22:18:47.889Z,53.06
2018-08-19T22:24:52.639Z,53.76
2018-08-19T22:30:57.345Z,53.92
2018-08-19T22:37:02.087Z,53.83
2018-08-19T22:43:08.495Z,54.11
2018-08-19T22:49:13.354Z,53.93
2018-08-19T22:55:18.177Z,54.00
2018-08-19T23:01:23.595Z,54.41
2018-08-19T23:07:28.427Z,55.51
2018-08-19T23:13:50.094Z,56.74
2018-08-19T23:19:55.105Z,56.20
2018-08-19T23:25:59.994Z,57.35
2018-08-19T23:32:04.774Z,57.71
2018-08-19T23:38:10.355Z,58.26
2018-08-19T23:44:15.170Z,58.07
2018-08-19T23:50:19.849Z,58.24
2018-08-19T23:56:24.621Z,59.39
